createdAt,value
2023-05-08T00:01:35.824Z,7.97
2023-05-08T00:04:23.990Z,9.13
2023-05-08T00:07:12.491Z,7.85
2023-05-08T00:10:00.198Z,7.45
2023-05-08T00:12:47.434Z,8.18
2023-05-08T00:15:36.997Z,10.85
2023-05-08T00:18:24.139Z,9.30
2023-05-08T00:21:12.464Z,8.75
2023-05-08T00:24:01.017Z,8.65
2023-05-08T00:26:49.114Z,7.20
2023-05-08T00:29:36.704Z,8.30
2023-05-08T00:32:24.890Z,7.60
2023-05-08T00:35:12.979Z,7.78
2023-05-08T00:38:01.888Z,7.57
2023-05-08T00:40:50.414Z,9.32
2023-05-08T00:43:40.485Z,7.22
2023-05-08T00:46:27.751Z,7.85
2023-05-08T00:49:16.453Z,6.60
2023-05-08T00:52:08.633Z,6.82
2023-05-08T00:54:57.088Z,6.35
2023-05-08T00:57:48.107Z,5.78
2023-05-08T01:00:36.665Z,5.32
2023-05-08T01:03:25.312Z,6.90
2023-05-08T01:06:13.580Z,6.07
2023-05-08T01:09:01.002Z,5.72
2023-05-08T01:11:57.326Z,4.53
2023-05-08T01:14:58.140Z,6.38
2023-05-08T01:17:57.998Z,6.40
2023-05-08T01:20:49.900Z,5.13
2023-05-08T01:24:14.542Z,4.68
2023-05-08T01:27:35.213Z,6.25
2023-05-08T01:31:07.746Z,5.40
2023-05-08T01:34:04.447Z,5.93
2023-05-08T01:36:58.837Z,3.53
2023-05-08T01:39:51.099Z,4.57
2023-05-08T01:42:51.179Z,5.97
2023-05-08T01:45:41.267Z,4.03
2023-05-08T01:48:34.495Z,4.82
2023-05-08T01:51:26.085Z,4.63
2023-05-08T01:54:19.151Z,4.75
2023-05-08T01:57:09.847Z,5.65
2023-05-08T02:00:00.897Z,4.30
2023-05-08T02:02:49.464Z,5.53
2023-05-08T02:05:39.248Z,4.45
2023-05-08T02:08:29.842Z,5.50
2023-05-08T02:11:18.753Z,5.10
2023-05-08T02:14:08.653Z,6.13
2023-05-08T02:16:59.052Z,5.47
2023-05-08T02:19:49.404Z,6.93
2023-05-08T02:22:38.034Z,4.95
2023-05-08T02:25:28.703Z,5.40
2023-05-08T02:28:17.439Z,5.93
2023-05-08T02:31:06.284Z,4.60
2023-05-08T02:33:55.283Z,5.90
2023-05-08T02:36:44.090Z,4.97
2023-05-08T02:39:35.143Z,7.93
2023-05-08T02:42:25.362Z,5.93
2023-05-08T02:45:13.011Z,5.40
2023-05-08T02:48:09.824Z,5.78
2023-05-08T02:51:02.828Z,8.85
2023-05-08T02:53:57.048Z,10.32
2023-05-08T02:56:55.670Z,10.55
2023-05-08T02:59:51.284Z,13.32
2023-05-08T03:02:42.832Z,10.57
2023-05-08T03:05:32.581Z,11.45
2023-05-08T03:08:24.657Z,14.32
2023-05-08T03:11:15.852Z,13.38
2023-05-08T03:14:09.468Z,11.00
2023-05-08T03:17:00.970Z,13.37
2023-05-08T03:19:54.815Z,13.52
2023-05-08T03:22:43.650Z,11.52
2023-05-08T03:25:34.634Z,11.88
2023-05-08T03:28:24.015Z,12.25
2023-05-08T03:31:14.062Z,11.77
2023-05-08T03:34:03.532Z,10.80
2023-05-08T03:36:51.776Z,11.85
2023-05-08T03:39:39.832Z,11.68
2023-05-08T03:42:27.371Z,10.95
2023-05-08T03:45:17.609Z,12.27
2023-05-08T03:48:06.256Z,11.43
2023-05-08T03:50:57.886Z,11.10
2023-05-08T03:53:45.534Z,11.27
2023-05-08T03:56:34.985Z,12.30
2023-05-08T03:59:30.081Z,11.80
2023-05-08T04:02:24.393Z,17.27
2023-05-08T04:05:20.946Z,9.40
2023-05-08T04:08:17.000Z,10.77
2023-05-08T04:11:12.254Z,11.83
2023-05-08T04:14:07.682Z,10.17
2023-05-08T04:17:03.093Z,9.43
2023-05-08T04:19:59.222Z,9.07
2023-05-08T04:22:48.809Z,10.20
2023-05-08T04:25:40.158Z,10.03
2023-05-08T04:28:28.739Z,8.77
2023-05-08T04:31:17.582Z,9.80
2023-05-08T04:34:06.737Z,8.47
2023-05-08T04:36:54.418Z,10.27
2023-05-08T04:39:43.742Z,9.50
2023-05-08T04:42:33.545Z,9.17
2023-05-08T04:45:21.961Z,9.30
2023-05-08T04:48:09.909Z,8.90
2023-05-08T04:50:57.637Z,9.07
2023-05-08T04:53:44.836Z,10.07
2023-05-08T04:56:32.492Z,10.83
2023-05-08T04:59:21.970Z,8.63
2023-05-08T05:02:10.357Z,10.67
2023-05-08T05:04:58.877Z,8.97
2023-05-08T05:07:47.462Z,11.50
2023-05-08T05:10:34.867Z,10.13
2023-05-08T05:13:23.054Z,10.23
2023-05-08T05:16:12.058Z,10.07
2023-05-08T05:19:00.232Z,9.80
2023-05-08T05:21:47.920Z,9.40
2023-05-08T05:24:36.602Z,8.87
2023-05-08T05:27:24.595Z,13.50
2023-05-08T05:30:13.514Z,9.67
2023-05-08T05:33:02.901Z,9.40
2023-05-08T05:35:50.148Z,10.50
2023-05-08T05:38:37.762Z,9.57
2023-05-08T05:41:25.874Z,10.23
2023-05-08T05:44:14.221Z,13.70
2023-05-08T05:47:01.542Z,14.60
2023-05-08T05:49:50.546Z,10.27
2023-05-08T05:52:38.150Z,10.07
2023-05-08T05:55:26.232Z,11.93
2023-05-08T05:58:13.448Z,11.67
2023-05-08T06:01:01.709Z,13.87
2023-05-08T06:03:50.650Z,11.73
2023-05-08T06:06:39.420Z,14.33
2023-05-08T06:09:26.606Z,11.87
2023-05-08T06:12:13.815Z,16.20
2023-05-08T06:15:00.984Z,12.40
2023-05-08T06:17:49.386Z,15.27
2023-05-08T06:20:37.832Z,12.50
2023-05-08T06:23:27.877Z,12.90
2023-05-08T06:26:15.051Z,9.87
2023-05-08T06:29:02.903Z,11.27
2023-05-08T06:31:50.967Z,13.13
2023-05-08T06:34:39.025Z,12.70
2023-05-08T06:37:26.394Z,11.90
2023-05-08T06:40:16.102Z,13.13
2023-05-08T06:43:03.685Z,13.73
2023-05-08T06:45:53.450Z,15.50
2023-05-08T06:48:41.665Z,17.20
2023-05-08T06:51:28.839Z,15.20
2023-05-08T06:54:17.037Z,10.97
2023-05-08T06:57:06.150Z,15.07
2023-05-08T06:59:54.189Z,20.37
2023-05-08T07:02:41.359Z,12.33
2023-05-08T07:05:29.491Z,15.47
2023-05-08T07:08:16.653Z,13.77
2023-05-08T07:11:05.526Z,11.70
2023-05-08T07:13:54.723Z,11.90
2023-05-08T07:16:41.964Z,13.17
2023-05-08T07:19:29.665Z,12.13
2023-05-08T07:22:16.961Z,11.73
2023-05-08T07:25:05.471Z,10.97
2023-05-08T07:27:52.592Z,12.07
2023-05-08T07:30:42.003Z,9.93
2023-05-08T07:33:29.141Z,10.73
2023-05-08T07:36:16.758Z,13.17
2023-05-08T07:39:04.075Z,11.30
2023-05-08T07:41:52.161Z,11.53
2023-05-08T07:44:51.040Z,10.77
2023-05-08T07:47:50.745Z,10.57
2023-05-08T07:50:38.416Z,9.50
2023-05-08T07:53:25.549Z,11.07
2023-05-08T07:56:13.215Z,10.02
2023-05-08T07:59:00.330Z,12.02
2023-05-08T08:01:47.838Z,10.90
2023-05-08T08:04:36.457Z,14.13
2023-05-08T08:07:24.125Z,11.70
2023-05-08T08:10:12.087Z,9.57
2023-05-08T08:13:02.036Z,12.48
2023-05-08T08:15:49.150Z,11.68
2023-05-08T08:18:37.505Z,8.98
2023-05-08T08:21:25.958Z,10.48
2023-05-08T08:24:13.610Z,10.80
2023-05-08T08:27:01.732Z,12.88
2023-05-08T08:29:48.873Z,10.52
2023-05-08T08:32:36.043Z,12.82
2023-05-08T08:35:29.609Z,15.45
2023-05-08T08:38:18.699Z,12.20
2023-05-08T08:41:06.390Z,10.70
2023-05-08T08:43:55.052Z,10.60
2023-05-08T08:46:49.892Z,9.15
2023-05-08T08:49:42.822Z,12.80
2023-05-08T08:52:38.243Z,9.68
2023-05-08T08:55:27.471Z,9.05
2023-05-08T08:58:20.234Z,9.15
2023-05-08T09:01:09.431Z,8.70
2023-05-08T09:03:59.248Z,10.75
2023-05-08T09:06:47.457Z,11.88
2023-05-08T09:09:37.621Z,9.50
2023-05-08T09:12:26.732Z,8.18
2023-05-08T09:15:14.177Z,8.00
2023-05-08T09:18:02.656Z,7.68
2023-05-08T09:20:51.324Z,9.40
2023-05-08T09:23:55.159Z,9.40
2023-05-08T09:26:42.892Z,9.43
2023-05-08T09:29:31.940Z,9.95
2023-05-08T09:32:19.629Z,8.30
2023-05-08T09:35:08.244Z,9.68
2023-05-08T09:37:57.393Z,10.00
2023-05-08T09:40:44.439Z,9.68
2023-05-08T09:43:32.549Z,9.23
2023-05-08T09:46:25.888Z,9.45
2023-05-08T09:49:18.547Z,10.75
2023-05-08T09:52:05.866Z,9.15
2023-05-08T09:55:04.068Z,10.40
2023-05-08T09:57:56.910Z,9.85
2023-05-08T10:00:45.101Z,11.88
2023-05-08T10:03:49.875Z,11.70
2023-05-08T10:06:38.199Z,10.52
2023-05-08T10:09:27.371Z,10.68
2023-05-08T10:12:18.571Z,9.57
2023-05-08T10:15:07.407Z,12.20
2023-05-08T10:17:59.403Z,13.88
2023-05-08T10:20:49.524Z,10.13
2023-05-08T10:23:39.386Z,13.15
2023-05-08T10:26:32.196Z,10.07
2023-05-08T10:29:25.612Z,11.48
2023-05-08T10:32:15.251Z,12.57
2023-05-08T10:35:06.189Z,13.82
2023-05-08T10:37:57.011Z,12.05
2023-05-08T10:40:45.131Z,11.45
2023-05-08T10:43:33.461Z,11.82
2023-05-08T10:46:38.805Z,10.75
2023-05-08T10:49:34.832Z,13.85
2023-05-08T10:52:29.772Z,13.70
2023-05-08T10:55:25.072Z,11.60
2023-05-08T10:58:17.586Z,10.98
2023-05-08T11:01:15.592Z,9.77
2023-05-08T11:04:21.282Z,10.95
2023-05-08T11:07:09.160Z,46.90
2023-05-08T11:10:07.548Z,30.63
2023-05-08T11:12:57.151Z,45.50
2023-05-08T11:15:51.804Z,15.82
2023-05-08T11:19:16.333Z,15.50
2023-05-08T11:22:23.380Z,47.90
2023-05-08T11:25:13.250Z,74.75
2023-05-08T11:28:10.101Z,15.30
2023-05-08T11:31:02.795Z,14.30
2023-05-08T11:33:51.584Z,45.10
2023-05-08T11:36:39.653Z,17.42
2023-05-08T11:39:28.230Z,17.60
2023-05-08T11:42:35.308Z,15.95
2023-05-08T11:45:23.245Z,12.95
2023-05-08T11:48:16.105Z,12.93
2023-05-08T11:51:04.130Z,11.80
2023-05-08T11:53:52.385Z,11.95
2023-05-08T11:56:41.110Z,45.05
2023-05-08T11:59:29.228Z,21.35
2023-05-08T12:02:16.924Z,37.58
2023-05-08T12:05:04.587Z,18.90
2023-05-08T12:07:52.339Z,23.80
2023-05-08T12:10:49.337Z,36.50
2023-05-08T12:13:37.876Z,18.25
2023-05-08T12:16:26.647Z,31.65
2023-05-08T12:19:14.775Z,19.90
2023-05-08T12:22:01.895Z,13.20
2023-05-08T12:24:49.238Z,16.98
2023-05-08T12:27:38.243Z,13.00
2023-05-08T12:30:27.438Z,10.55
2023-05-08T12:33:16.147Z,11.93
2023-05-08T12:36:05.501Z,10.50
2023-05-08T12:38:53.123Z,10.15
2023-05-08T12:41:47.613Z,13.85
2023-05-08T12:44:35.250Z,12.05
2023-05-08T12:47:26.247Z,10.63
2023-05-08T12:50:15.856Z,14.95
2023-05-08T12:53:04.447Z,9.68
2023-05-08T12:55:53.934Z,11.40
2023-05-08T12:58:41.204Z,11.50
2023-05-08T13:01:29.474Z,11.23
2023-05-08T13:04:18.015Z,11.75
2023-05-08T13:07:05.886Z,12.23
2023-05-08T13:09:57.185Z,11.93
2023-05-08T13:12:44.884Z,12.82
2023-05-08T13:15:32.221Z,12.10
2023-05-08T13:18:21.128Z,13.85
2023-05-08T13:21:10.139Z,12.88
2023-05-08T13:23:57.960Z,12.02
2023-05-08T13:26:46.058Z,14.38
2023-05-08T13:29:33.212Z,11.65
2023-05-08T13:32:21.343Z,13.20
2023-05-08T13:35:08.789Z,12.40
2023-05-08T13:37:58.458Z,15.18
2023-05-08T13:40:46.187Z,17.60
2023-05-08T13:43:36.078Z,15.05
2023-05-08T13:46:24.076Z,13.02
2023-05-08T13:49:11.333Z,17.35
2023-05-08T13:51:58.636Z,15.15
2023-05-08T13:54:47.112Z,15.77
2023-05-08T13:57:35.378Z,14.98
2023-05-08T14:00:22.564Z,15.00
2023-05-08T14:03:09.747Z,15.70
2023-05-08T14:05:57.431Z,14.77
2023-05-08T14:08:47.270Z,13.05
2023-05-08T14:11:38.601Z,16.42
2023-05-08T14:14:25.840Z,15.13
2023-05-08T14:17:13.874Z,15.35
2023-05-08T14:20:01.101Z,13.40
2023-05-08T14:22:49.659Z,15.80
2023-05-08T14:25:36.892Z,13.93
2023-05-08T14:28:26.175Z,12.90
2023-05-08T14:31:13.399Z,13.40
2023-05-08T14:34:00.460Z,13.40
2023-05-08T14:36:47.647Z,13.70
2023-05-08T14:39:35.465Z,13.70
2023-05-08T14:42:23.807Z,10.88
2023-05-08T14:45:12.943Z,10.45
2023-05-08T14:48:00.395Z,11.45
2023-05-08T14:50:48.142Z,13.20
2023-05-08T14:53:35.441Z,10.25
2023-05-08T14:56:24.608Z,10.68
2023-05-08T14:59:12.014Z,16.73
2023-05-08T15:02:00.661Z,13.40
2023-05-08T15:04:47.965Z,10.77
2023-05-08T15:07:36.702Z,11.18
2023-05-08T15:10:24.260Z,9.90
2023-05-08T15:13:12.377Z,10.52
2023-05-08T15:15:59.516Z,11.82
2023-05-08T15:18:48.906Z,8.65
2023-05-08T15:21:36.055Z,6.88
2023-05-08T15:24:23.635Z,9.07
2023-05-08T15:27:11.766Z,10.27
2023-05-08T15:29:59.408Z,10.43
2023-05-08T15:32:46.767Z,9.77
2023-05-08T15:35:35.243Z,11.90
2023-05-08T15:38:22.544Z,10.10
2023-05-08T15:41:14.597Z,9.45
2023-05-08T15:44:02.457Z,10.55
2023-05-08T15:46:49.998Z,10.70
2023-05-08T15:49:37.271Z,8.27
2023-05-08T15:52:26.326Z,7.82
2023-05-08T15:55:13.797Z,10.05
2023-05-08T15:58:01.965Z,10.48
2023-05-08T16:00:49.444Z,9.73
2023-05-08T16:03:36.688Z,9.13
2023-05-08T16:06:24.234Z,11.20
2023-05-08T16:09:12.779Z,8.77
2023-05-08T16:12:00.380Z,11.98
2023-05-08T16:14:47.781Z,10.48
2023-05-08T16:17:35.163Z,14.43
2023-05-08T16:20:22.582Z,9.75
2023-05-08T16:23:10.717Z,10.85
2023-05-08T16:25:59.441Z,10.25
2023-05-08T16:28:47.028Z,9.45
2023-05-08T16:31:34.291Z,11.35
2023-05-08T16:34:22.042Z,9.82
2023-05-08T16:37:09.653Z,10.00
2023-05-08T16:39:57.485Z,10.35
2023-05-08T16:42:46.191Z,10.70
2023-05-08T16:45:35.772Z,10.48
2023-05-08T16:48:23.636Z,12.65
2023-05-08T16:51:10.847Z,12.90
2023-05-08T16:53:58.883Z,10.73
2023-05-08T16:56:46.024Z,10.52
2023-05-08T16:59:35.395Z,10.88
2023-05-08T17:02:23.209Z,11.82
2023-05-08T17:05:10.478Z,15.30
2023-05-08T17:07:58.035Z,9.82
2023-05-08T17:10:45.708Z,11.13
2023-05-08T17:13:33.375Z,13.35
2023-05-08T17:16:22.431Z,9.98
2023-05-08T17:19:10.037Z,12.13
2023-05-08T17:21:59.566Z,11.95
2023-05-08T17:24:47.449Z,11.70
2023-05-08T17:27:36.421Z,10.88
2023-05-08T17:30:23.562Z,10.20
2023-05-08T17:33:12.120Z,12.07
2023-05-08T17:36:01.389Z,12.93
2023-05-08T17:38:51.023Z,12.00
2023-05-08T17:41:38.662Z,12.10
2023-05-08T17:44:25.891Z,13.38
2023-05-08T17:47:13.513Z,13.82
2023-05-08T17:50:02.535Z,11.98
2023-05-08T17:52:50.201Z,12.25
2023-05-08T17:55:37.910Z,12.32
2023-05-08T17:58:25.504Z,12.07
2023-05-08T18:01:12.778Z,15.85
2023-05-08T18:04:00.643Z,12.93
2023-05-08T18:06:49.486Z,11.77
2023-05-08T18:09:37.184Z,12.45
2023-05-08T18:12:24.488Z,13.25
2023-05-08T18:15:11.983Z,14.95
2023-05-08T18:17:59.741Z,17.02
2023-05-08T18:20:47.411Z,14.88
2023-05-08T18:23:36.760Z,14.85
2023-05-08T18:26:23.960Z,15.98
2023-05-08T18:29:11.561Z,13.35
2023-05-08T18:31:58.751Z,14.93
2023-05-08T18:34:46.827Z,15.23
2023-05-08T18:37:34.111Z,13.32
2023-05-08T18:40:23.569Z,13.93
2023-05-08T18:43:11.452Z,16.48
2023-05-08T18:46:00.880Z,14.23
2023-05-08T18:48:48.215Z,13.60
2023-05-08T18:51:36.117Z,13.25
2023-05-08T18:54:26.768Z,14.45
2023-05-08T18:57:15.504Z,13.70
2023-05-08T19:00:04.163Z,15.43
2023-05-08T19:02:52.098Z,14.70
2023-05-08T19:05:40.957Z,15.75
2023-05-08T19:08:28.272Z,17.23
2023-05-08T19:11:15.759Z,17.17
2023-05-08T19:14:04.925Z,15.82
2023-05-08T19:16:52.106Z,16.23
2023-05-08T19:19:39.345Z,17.52
2023-05-08T19:22:26.565Z,15.30
2023-05-08T19:25:14.007Z,17.55
2023-05-08T19:28:01.304Z,14.65
2023-05-08T19:30:49.929Z,15.73
2023-05-08T19:33:37.134Z,15.35
2023-05-08T19:36:24.405Z,17.02
2023-05-08T19:39:11.575Z,14.80
2023-05-08T19:42:00.628Z,17.10
2023-05-08T19:44:47.823Z,16.10
2023-05-08T19:47:36.989Z,15.35
2023-05-08T19:50:24.321Z,17.95
2023-05-08T19:53:12.440Z,15.50
2023-05-08T19:55:59.674Z,16.95
2023-05-08T19:58:47.873Z,19.65
2023-05-08T20:01:35.101Z,18.17
2023-05-08T20:04:24.780Z,17.27
2023-05-08T20:07:12.000Z,15.23
2023-05-08T20:09:59.791Z,22.92
2023-05-08T20:12:46.986Z,18.67
2023-05-08T20:15:34.808Z,18.00
2023-05-08T20:18:22.028Z,17.75
2023-05-08T20:21:10.564Z,18.17
2023-05-08T20:23:57.951Z,16.63
2023-05-08T20:26:45.624Z,18.40
2023-05-08T20:29:32.975Z,17.98
2023-05-08T20:32:21.218Z,17.40
2023-05-08T20:35:09.245Z,19.48
2023-05-08T20:37:57.874Z,18.77
2023-05-08T20:40:45.140Z,17.77
2023-05-08T20:43:32.379Z,22.37
2023-05-08T20:46:19.633Z,18.83
2023-05-08T20:49:06.778Z,19.48
2023-05-08T20:51:54.905Z,17.23
2023-05-08T20:54:45.938Z,17.55
2023-05-08T20:57:33.630Z,19.75
2023-05-08T21:00:21.440Z,18.00
2023-05-08T21:03:09.190Z,17.47
2023-05-08T21:05:56.990Z,18.43
2023-05-08T21:08:44.171Z,19.98
2023-05-08T21:11:33.255Z,20.03
2023-05-08T21:14:20.937Z,20.43
2023-05-08T21:17:08.628Z,21.00
2023-05-08T21:19:57.030Z,19.13
2023-05-08T21:22:46.568Z,19.43
2023-05-08T21:25:36.555Z,22.90
2023-05-08T21:28:25.684Z,21.20
2023-05-08T21:31:12.905Z,18.10
2023-05-08T21:34:01.430Z,18.07
2023-05-08T21:36:49.664Z,19.17
2023-05-08T21:39:37.007Z,20.13
2023-05-08T21:42:25.014Z,22.25
2023-05-08T21:45:13.660Z,18.70
2023-05-08T21:48:02.112Z,20.03
2023-05-08T21:50:49.750Z,21.33
2023-05-08T21:53:36.899Z,19.57
2023-05-08T21:56:25.410Z,20.93
2023-05-08T21:59:13.162Z,21.33
2023-05-08T22:02:03.477Z,20.03
2023-05-08T22:04:51.096Z,21.87
2023-05-08T22:07:38.794Z,19.03
2023-05-08T22:10:26.061Z,17.90
2023-05-08T22:13:14.241Z,18.90
2023-05-08T22:16:01.402Z,19.17
2023-05-08T22:18:50.598Z,21.73
2023-05-08T22:21:38.332Z,19.43
2023-05-08T22:24:27.848Z,17.87
2023-05-08T22:27:15.018Z,19.37
2023-05-08T22:30:03.292Z,18.37
2023-05-08T22:32:55.572Z,18.27
2023-05-08T22:35:44.739Z,17.63
2023-05-08T22:38:32.009Z,22.77
2023-05-08T22:41:20.294Z,17.07
2023-05-08T22:44:07.716Z,19.37
2023-05-08T22:46:56.202Z,21.87
2023-05-08T22:49:43.603Z,17.33
2023-05-08T22:52:33.032Z,16.60
2023-05-08T22:55:20.263Z,20.33
2023-05-08T22:58:08.669Z,17.43
2023-05-08T23:00:56.610Z,17.00
2023-05-08T23:03:44.237Z,18.13
2023-05-08T23:06:32.558Z,16.40
2023-05-08T23:09:22.112Z,18.20
2023-05-08T23:12:09.283Z,20.73
2023-05-08T23:14:57.444Z,17.30
2023-05-08T23:17:45.097Z,17.40
2023-05-08T23:20:32.865Z,15.53
2023-05-08T23:23:20.526Z,17.57
2023-05-08T23:26:09.576Z,18.27
2023-05-08T23:28:57.258Z,15.43
2023-05-08T23:31:44.501Z,16.33
2023-05-08T23:34:32.763Z,15.93
2023-05-08T23:37:19.904Z,18.63
2023-05-08T23:40:09.438Z,18.03
2023-05-08T23:42:58.019Z,17.20
2023-05-08T23:45:46.241Z,15.60
2023-05-08T23:48:33.424Z,16.53
2023-05-08T23:51:22.042Z,14.13
2023-05-08T23:54:09.210Z,16.67
2023-05-08T23:56:57.323Z,14.67
2023-05-08T23:59:45.872Z,17.10
